sensor_id;sensor_type;location;lat;lon;timestamp;pressure;altitude;pressure_sealevel;temperature;humidity
45345;BME280;31078;48.304;11.896;2023-02-11T00:00:15;98165.06;;;-2.72;85.14
45345;BME280;31078;48.304;11.896;2023-02-11T00:02:42;98167.13;;;-2.74;84.95
45345;BME280;31078;48.304;11.896;2023-02-11T00:05:09;98168.75;;;-2.73;84.98
45345;BME280;31078;48.304;11.896;2023-02-11T00:07:36;98173.06;;;-2.72;84.88
45345;BME280;31078;48.304;11.896;2023-02-11T00:10:03;98175.75;;;-2.72;84.91
45345;BME280;31078;48.304;11.896;2023-02-11T00:12:32;98158.66;;;-2.78;84.82
45345;BME280;31078;48.304;11.896;2023-02-11T00:14:59;98155.94;;;-2.84;84.92
45345;BME280;31078;48.304;11.896;2023-02-11T00:17:26;98153.06;;;-2.83;84.99
45345;BME280;31078;48.304;11.896;2023-02-11T00:19:53;98160.25;;;-2.83;85.07
45345;BME280;31078;48.304;11.896;2023-02-11T00:22:20;98163.66;;;-2.90;85.12
45345;BME280;31078;48.304;11.896;2023-02-11T00:24:46;98157.88;;;-2.93;85.27
45345;BME280;31078;48.304;11.896;2023-02-11T00:27:13;98157.16;;;-2.87;85.22
45345;BME280;31078;48.304;11.896;2023-02-11T00:29:39;98159.22;;;-2.82;85.28
45345;BME280;31078;48.304;11.896;2023-02-11T00:32:08;98159.22;;;-2.82;85.39
45345;BME280;31078;48.304;11.896;2023-02-11T00:34:36;98157.22;;;-2.80;85.47
45345;BME280;31078;48.304;11.896;2023-02-11T00:37:03;98151.47;;;-2.77;85.39
45345;BME280;31078;48.304;11.896;2023-02-11T00:39:30;98153.16;;;-2.76;85.04
45345;BME280;31078;48.304;11.896;2023-02-11T00:41:56;98153.16;;;-2.76;85.12
45345;BME280;31078;48.304;11.896;2023-02-11T00:44:23;98142.03;;;-2.80;84.98
45345;BME280;31078;48.304;11.896;2023-02-11T00:46:49;98149.84;;;-2.78;84.90
45345;BME280;31078;48.304;11.896;2023-02-11T00:49:17;98143.69;;;-2.79;84.40
45345;BME280;31078;48.304;11.896;2023-02-11T00:51:44;98147.56;;;-2.81;84.01
45345;BME280;31078;48.304;11.896;2023-02-11T00:54:10;98142.59;;;-2.84;83.89
45345;BME280;31078;48.304;11.896;2023-02-11T00:56:37;98142.34;;;-2.90;84.78
45345;BME280;31078;48.304;11.896;2023-02-11T00:59:03;98135.47;;;-2.99;86.07
45345;BME280;31078;48.304;11.896;2023-02-11T01:01:30;98137.75;;;-2.96;85.81
45345;BME280;31078;48.304;11.896;2023-02-11T01:03:56;98132.03;;;-2.93;86.21
45345;BME280;31078;48.304;11.896;2023-02-11T01:06:24;98139.94;;;-2.84;85.36
45345;BME280;31078;48.304;11.896;2023-02-11T01:08:51;98136.13;;;-2.75;84.93
45345;BME280;31078;48.304;11.896;2023-02-11T01:11:18;98138.59;;;-2.74;84.78
45345;BME280;31078;48.304;11.896;2023-02-11T01:13:46;98141.72;;;-2.70;84.86
45345;BME280;31078;48.304;11.896;2023-02-11T01:16:13;98134.34;;;-2.68;84.59
45345;BME280;31078;48.304;11.896;2023-02-11T01:18:40;98132.34;;;-2.66;84.59
45345;BME280;31078;48.304;11.896;2023-02-11T01:21:08;98130.66;;;-2.67;84.64
45345;BME280;31078;48.304;11.896;2023-02-11T01:23:36;98133.97;;;-2.65;84.26
45345;BME280;31078;48.304;11.896;2023-02-11T01:26:03;98127.38;;;-2.69;83.74
45345;BME280;31078;48.304;11.896;2023-02-11T01:28:30;98122.03;;;-2.69;83.85
45345;BME280;31078;48.304;11.896;2023-02-11T01:30:56;98136.00;;;-2.67;83.77
45345;BME280;31078;48.304;11.896;2023-02-11T01:33:23;98134.75;;;-2.71;83.61
45345;BME280;31078;48.304;11.896;2023-02-11T01:35:49;98138.81;;;-2.75;83.21
45345;BME280;31078;48.304;11.896;2023-02-11T01:38:19;98134.22;;;-2.81;82.92
45345;BME280;31078;48.304;11.896;2023-02-11T01:40:49;98132.56;;;-2.82;83.03
45345;BME280;31078;48.304;11.896;2023-02-11T01:43:16;98136.25;;;-2.83;83.06
45345;BME280;31078;48.304;11.896;2023-02-11T01:45:59;98137.25;;;-2.84;82.74
45345;BME280;31078;48.304;11.896;2023-02-11T01:48:31;98135.97;;;-2.89;82.54
45345;BME280;31078;48.304;11.896;2023-02-11T01:51:03;98119.09;;;-2.96;82.56
45345;BME280;31078;48.304;11.896;2023-02-11T01:53:32;98125.00;;;-3.00;82.95
45345;BME280;31078;48.304;11.896;2023-02-11T01:56:19;98122.06;;;-3.05;82.82
45345;BME280;31078;48.304;11.896;2023-02-11T01:59:08;98124.28;;;-3.09;82.96
45345;BME280;31078;48.304;11.896;2023-02-11T02:01:37;98126.50;;;-3.12;83.00
45345;BME280;31078;48.304;11.896;2023-02-11T02:04:07;98129.34;;;-3.14;83.01
45345;BME280;31078;48.304;11.896;2023-02-11T02:06:40;98119.84;;;-3.23;83.03
45345;BME280;31078;48.304;11.896;2023-02-11T02:09:14;98118.16;;;-3.24;83.24
45345;BME280;31078;48.304;11.896;2023-02-11T02:11:43;98118.16;;;-3.24;83.43
45345;BME280;31078;48.304;11.896;2023-02-11T02:14:10;98112.28;;;-3.34;83.41
45345;BME280;31078;48.304;11.896;2023-02-11T02:16:37;98116.38;;;-3.38;83.79
45345;BME280;31078;48.304;11.896;2023-02-11T02:19:23;98109.81;;;-3.36;83.89
45345;BME280;31078;48.304;11.896;2023-02-11T02:24:58;98092.00;;;-3.35;84.32
45345;BME280;31078;48.304;11.896;2023-02-11T02:27:44;98088.22;;;-3.26;84.98
45345;BME280;31078;48.304;11.896;2023-02-11T02:30:42;98080.50;;;-3.21;85.35
45345;BME280;31078;48.304;11.896;2023-02-11T02:33:23;98065.22;;;-3.12;85.47
45345;BME280;31078;48.304;11.896;2023-02-11T02:35:57;98065.78;;;-3.17;85.88
45345;BME280;31078;48.304;11.896;2023-02-11T02:38:30;98060.88;;;-3.13;85.63
45345;BME280;31078;48.304;11.896;2023-02-11T02:41:01;98054.41;;;-3.04;84.81
45345;BME280;31078;48.304;11.896;2023-02-11T02:43:30;98062.88;;;-3.01;84.43
45345;BME280;31078;48.304;11.896;2023-02-11T02:46:11;98054.13;;;-2.95;84.20
45345;BME280;31078;48.304;11.896;2023-02-11T02:48:40;98051.66;;;-2.96;83.58
45345;BME280;31078;48.304;11.896;2023-02-11T02:51:17;98043.81;;;-2.98;83.94
45345;BME280;31078;48.304;11.896;2023-02-11T02:53:56;98033.88;;;-2.89;83.27
45345;BME280;31078;48.304;11.896;2023-02-11T02:56:30;98034.31;;;-2.85;83.07
45345;BME280;31078;48.304;11.896;2023-02-11T02:59:12;98041.03;;;-2.90;82.82
45345;BME280;31078;48.304;11.896;2023-02-11T03:01:50;98041.91;;;-2.82;83.06
45345;BME280;31078;48.304;11.896;2023-02-11T03:04:28;98043.91;;;-2.91;83.03
45345;BME280;31078;48.304;11.896;2023-02-11T03:07:02;98044.56;;;-2.82;82.99
45345;BME280;31078;48.304;11.896;2023-02-11T03:09:39;98038.81;;;-2.86;82.74
45345;BME280;31078;48.304;11.896;2023-02-11T03:12:09;98024.28;;;-2.83;82.48
45345;BME280;31078;48.304;11.896;2023-02-11T03:14:37;98029.84;;;-2.78;82.34
45345;BME280;31078;48.304;11.896;2023-02-11T03:17:07;98032.16;;;-2.75;82.19
45345;BME280;31078;48.304;11.896;2023-02-11T03:19:37;98032.16;;;-2.75;82.48
45345;BME280;31078;48.304;11.896;2023-02-11T03:22:08;98024.41;;;-2.70;82.32
45345;BME280;31078;48.304;11.896;2023-02-11T03:24:38;98041.66;;;-2.66;82.09
45345;BME280;31078;48.304;11.896;2023-02-11T03:27:11;98039.19;;;-2.68;81.98
45345;BME280;31078;48.304;11.896;2023-02-11T03:29:45;98046.09;;;-2.73;81.63
45345;BME280;31078;48.304;11.896;2023-02-11T03:32:18;98037.47;;;-2.75;81.65
45345;BME280;31078;48.304;11.896;2023-02-11T03:34:53;98030.88;;;-2.79;81.09
45345;BME280;31078;48.304;11.896;2023-02-11T03:37:24;98037.84;;;-2.78;81.13
45345;BME280;31078;48.304;11.896;2023-02-11T03:39:56;98034.16;;;-2.77;81.18
45345;BME280;31078;48.304;11.896;2023-02-11T03:42:29;98035.84;;;-2.76;81.57
45345;BME280;31078;48.304;11.896;2023-02-11T03:44:59;98029.59;;;-2.83;82.19
45345;BME280;31078;48.304;11.896;2023-02-11T03:47:31;98025.19;;;-2.76;82.08
45345;BME280;31078;48.304;11.896;2023-02-11T03:50:03;98027.63;;;-2.75;82.28
45345;BME280;31078;48.304;11.896;2023-02-11T03:52:32;98026.00;;;-2.76;82.31
45345;BME280;31078;48.304;11.896;2023-02-11T03:55:02;98039.13;;;-2.74;82.08
45345;BME280;31078;48.304;11.896;2023-02-11T03:57:31;98032.53;;;-2.78;82.08
45345;BME280;31078;48.304;11.896;2023-02-11T03:59:58;98039.13;;;-2.74;81.85
45345;BME280;31078;48.304;11.896;2023-02-11T04:02:27;98038.75;;;-2.71;81.82
45345;BME280;31078;48.304;11.896;2023-02-11T04:04:54;98053.59;;;-2.83;82.13
45345;BME280;31078;48.304;11.896;2023-02-11T04:07:22;98050.28;;;-2.64;81.45
45345;BME280;31078;48.304;11.896;2023-02-11T04:09:49;98049.97;;;-2.54;80.85
45345;BME280;31078;48.304;11.896;2023-02-11T04:12:16;98059.66;;;-2.47;80.64
45345;BME280;31078;48.304;11.896;2023-02-11T04:14:43;98054.56;;;-2.42;80.52
45345;BME280;31078;48.304;11.896;2023-02-11T04:17:09;98055.34;;;-2.48;80.36
45345;BME280;31078;48.304;11.896;2023-02-11T04:19:36;98048.81;;;-2.45;80.06
45345;BME280;31078;48.304;11.896;2023-02-11T04:22:03;98054.56;;;-2.42;80.12
45345;BME280;31078;48.304;11.896;2023-02-11T04:24:31;98056.84;;;-2.39;80.12
45345;BME280;31078;48.304;11.896;2023-02-11T04:26:57;98061.78;;;-2.36;80.00
45345;BME280;31078;48.304;11.896;2023-02-11T04:29:24;98060.22;;;-2.51;79.49
45345;BME280;31078;48.304;11.896;2023-02-11T04:31:50;98074.38;;;-2.51;79.43
45345;BME280;31078;48.304;11.896;2023-02-11T04:34:17;98085.38;;;-2.39;78.82
45345;BME280;31078;48.304;11.896;2023-02-11T04:36:43;98087.03;;;-2.38;78.29
45345;BME280;31078;48.304;11.896;2023-02-11T04:39:10;98096.44;;;-2.42;78.73
45345;BME280;31078;48.304;11.896;2023-02-11T04:41:38;98096.38;;;-2.49;78.62
45345;BME280;31078;48.304;11.896;2023-02-11T04:44:04;98090.78;;;-2.54;78.67
45345;BME280;31078;48.304;11.896;2023-02-11T04:46:31;98081.53;;;-2.58;79.02
45345;BME280;31078;48.304;11.896;2023-02-11T04:48:57;98079.88;;;-2.59;79.28
45345;BME280;31078;48.304;11.896;2023-02-11T04:51:24;98080.06;;;-2.60;79.20
45345;BME280;31078;48.304;11.896;2023-02-11T04:53:50;98068.34;;;-2.66;79.67
45345;BME280;31078;48.304;11.896;2023-02-11T04:56:17;98065.53;;;-2.58;79.51
45345;BME280;31078;48.304;11.896;2023-02-11T04:58:45;98075.31;;;-2.65;80.34
45345;BME280;31078;48.304;11.896;2023-02-11T05:01:13;98078.53;;;-2.48;79.75
45345;BME280;31078;48.304;11.896;2023-02-11T05:03:41;98070.03;;;-2.58;79.96
45345;BME280;31078;48.304;11.896;2023-02-11T05:06:08;98067.38;;;-2.80;81.06
45345;BME280;31078;48.304;11.896;2023-02-11T05:08:35;98070.75;;;-2.71;80.82
45345;BME280;31078;48.304;11.896;2023-02-11T05:11:02;98059.69;;;-2.68;80.78
45345;BME280;31078;48.304;11.896;2023-02-11T05:13:29;98063.16;;;-2.46;79.97
45345;BME280;31078;48.304;11.896;2023-02-11T05:15:57;98057.63;;;-2.45;79.37
45345;BME280;31078;48.304;11.896;2023-02-11T05:18:23;98064.31;;;-2.55;79.85
45345;BME280;31078;48.304;11.896;2023-02-11T05:20:50;98066.66;;;-2.67;79.92
45345;BME280;31078;48.304;11.896;2023-02-11T05:23:16;98055.31;;;-2.76;80.37
45345;BME280;31078;48.304;11.896;2023-02-11T05:25:43;98051.69;;;-2.90;81.12
45345;BME280;31078;48.304;11.896;2023-02-11T05:28:09;98046.22;;;-3.03;81.90
45345;BME280;31078;48.304;11.896;2023-02-11T05:30:36;98036.97;;;-2.85;82.17
45345;BME280;31078;48.304;11.896;2023-02-11T05:33:03;98032.06;;;-2.60;81.19
45345;BME280;31078;48.304;11.896;2023-02-11T05:35:30;98028.28;;;-2.45;80.48
45345;BME280;31078;48.304;11.896;2023-02-11T05:37:57;98034.13;;;-2.34;79.76
45345;BME280;31078;48.304;11.896;2023-02-11T05:40:23;98025.56;;;-2.23;79.20
45345;BME280;31078;48.304;11.896;2023-02-11T05:42:50;98022.25;;;-2.25;79.31
45345;BME280;31078;48.304;11.896;2023-02-11T05:45:16;98029.69;;;-2.14;78.83
45345;BME280;31078;48.304;11.896;2023-02-11T05:47:42;98028.84;;;-2.21;78.99
45345;BME280;31078;48.304;11.896;2023-02-11T05:50:10;98035.28;;;-2.44;79.52
45345;BME280;31078;48.304;11.896;2023-02-11T05:52:37;98032.81;;;-2.45;79.98
45345;BME280;31078;48.304;11.896;2023-02-11T05:55:04;98030.19;;;-2.39;80.02
45345;BME280;31078;48.304;11.896;2023-02-11T05:57:30;98033.88;;;-2.40;79.77
45345;BME280;31078;48.304;11.896;2023-02-11T05:59:57;98031.81;;;-2.38;79.64
45345;BME280;31078;48.304;11.896;2023-02-11T06:02:23;98023.00;;;-2.38;79.47
45345;BME280;31078;48.304;11.896;2023-02-11T06:04:50;98018.09;;;-2.34;79.38
45345;BME280;31078;48.304;11.896;2023-02-11T06:07:18;98037.41;;;-2.32;79.25
45345;BME280;31078;48.304;11.896;2023-02-11T06:09:44;98043.19;;;-2.29;78.62
45345;BME280;31078;48.304;11.896;2023-02-11T06:12:11;98049.00;;;-2.19;78.47
45345;BME280;31078;48.304;11.896;2023-02-11T06:14:37;98038.34;;;-2.12;78.54
45345;BME280;31078;48.304;11.896;2023-02-11T06:17:04;98036.59;;;-1.98;78.50
45345;BME280;31078;48.304;11.896;2023-02-11T06:19:31;98039.13;;;-1.84;78.00
45345;BME280;31078;48.304;11.896;2023-02-11T06:21:57;98045.66;;;-1.93;78.37
45345;BME280;31078;48.304;11.896;2023-02-11T06:24:25;98037.59;;;-1.99;77.99
45345;BME280;31078;48.304;11.896;2023-02-11T06:26:51;98043.69;;;-2.12;78.58
45345;BME280;31078;48.304;11.896;2023-02-11T06:29:18;98037.34;;;-2.11;78.27
45345;BME280;31078;48.304;11.896;2023-02-11T06:31:44;98037.22;;;-1.96;77.82
45345;BME280;31078;48.304;11.896;2023-02-11T06:34:11;98034.28;;;-2.08;78.57
45345;BME280;31078;48.304;11.896;2023-02-11T06:36:38;98033.03;;;-2.12;79.25
45345;BME280;31078;48.304;11.896;2023-02-11T06:39:05;98028.03;;;-2.22;79.14
45345;BME280;31078;48.304;11.896;2023-02-11T06:41:33;98030.50;;;-2.20;79.33
45345;BME280;31078;48.304;11.896;2023-02-11T06:44:00;98043.66;;;-2.19;79.03
45345;BME280;31078;48.304;11.896;2023-02-11T06:46:26;98042.91;;;-2.06;78.90
45345;BME280;31078;48.304;11.896;2023-02-11T06:48:53;98043.00;;;-1.93;78.93
45345;BME280;31078;48.304;11.896;2023-02-11T06:51:19;98035.50;;;-2.04;79.67
45345;BME280;31078;48.304;11.896;2023-02-11T06:53:46;98040.00;;;-2.11;80.08
45345;BME280;31078;48.304;11.896;2023-02-11T06:56:14;98046.97;;;-2.10;80.23
45345;BME280;31078;48.304;11.896;2023-02-11T06:58:42;98047.44;;;-2.00;80.48
45345;BME280;31078;48.304;11.896;2023-02-11T07:01:11;98039.44;;;-2.00;80.29
45345;BME280;31078;48.304;11.896;2023-02-11T07:03:41;98037.00;;;-1.95;79.89
45345;BME280;31078;48.304;11.896;2023-02-11T07:06:11;98040.94;;;-1.91;79.37
45345;BME280;31078;48.304;11.896;2023-02-11T07:08:38;98030.25;;;-1.91;79.30
45345;BME280;31078;48.304;11.896;2023-02-11T07:11:08;98024.34;;;-1.79;79.11
45345;BME280;31078;48.304;11.896;2023-02-11T07:13:35;98021.31;;;-1.76;77.96
45345;BME280;31078;48.304;11.896;2023-02-11T07:16:04;98036.97;;;-1.67;78.34
45345;BME280;31078;48.304;11.896;2023-02-11T07:18:31;98035.34;;;-1.61;78.21
45345;BME280;31078;48.304;11.896;2023-02-11T07:20:58;98028.38;;;-1.55;77.60
45345;BME280;31078;48.304;11.896;2023-02-11T07:23:24;98020.22;;;-1.41;77.49
45345;BME280;31078;48.304;11.896;2023-02-11T07:25:51;98030.47;;;-1.44;76.97
45345;BME280;31078;48.304;11.896;2023-02-11T07:28:17;98049.81;;;-1.36;76.71
45345;BME280;31078;48.304;11.896;2023-02-11T07:30:44;98060.53;;;-1.22;77.29
45345;BME280;31078;48.304;11.896;2023-02-11T07:33:12;98043.75;;;-1.10;77.15
45345;BME280;31078;48.304;11.896;2023-02-11T07:35:39;98043.31;;;-1.13;76.89
45345;BME280;31078;48.304;11.896;2023-02-11T07:38:05;98031.97;;;-1.15;77.21
45345;BME280;31078;48.304;11.896;2023-02-11T07:40:32;98022.75;;;-0.99;77.02
45345;BME280;31078;48.304;11.896;2023-02-11T07:42:59;97996.44;;;-1.09;76.05
45345;BME280;31078;48.304;11.896;2023-02-11T07:45:26;98002.81;;;-0.97;75.96
45345;BME280;31078;48.304;11.896;2023-02-11T07:47:52;98006.09;;;-0.95;75.34
45345;BME280;31078;48.304;11.896;2023-02-11T07:50:20;98014.53;;;-0.85;75.59
45345;BME280;31078;48.304;11.896;2023-02-11T07:52:47;98017.03;;;-0.76;75.39
45345;BME280;31078;48.304;11.896;2023-02-11T07:55:13;98029.78;;;-0.72;75.18
45345;BME280;31078;48.304;11.896;2023-02-11T07:57:40;98029.78;;;-0.72;74.69
45345;BME280;31078;48.304;11.896;2023-02-11T08:00:07;98035.97;;;-0.58;74.93
45345;BME280;31078;48.304;11.896;2023-02-11T08:02:34;98032.66;;;-0.54;74.46
45345;BME280;31078;48.304;11.896;2023-02-11T08:05:00;98033.28;;;-0.45;74.00
45345;BME280;31078;48.304;11.896;2023-02-11T08:07:28;98020.31;;;-0.48;74.10
45345;BME280;31078;48.304;11.896;2023-02-11T08:09:55;98018.66;;;-0.49;74.18
45345;BME280;31078;48.304;11.896;2023-02-11T08:12:21;98018.66;;;-0.42;74.50
45345;BME280;31078;48.304;11.896;2023-02-11T08:14:47;98028.13;;;-0.33;74.09
45345;BME280;31078;48.304;11.896;2023-02-11T08:17:14;98029.53;;;-0.11;73.55
45345;BME280;31078;48.304;11.896;2023-02-11T08:19:41;98023.16;;;-0.03;73.06
45345;BME280;31078;48.304;11.896;2023-02-11T08:22:08;98030.41;;;-0.23;73.09
45345;BME280;31078;48.304;11.896;2023-02-11T08:24:36;98026.91;;;-0.31;73.03
45345;BME280;31078;48.304;11.896;2023-02-11T08:27:02;98025.69;;;-0.41;73.39
45345;BME280;31078;48.304;11.896;2023-02-11T08:29:29;98033.91;;;-0.43;73.76
45345;BME280;31078;48.304;11.896;2023-02-11T08:31:55;98035.97;;;-0.25;73.95
45345;BME280;31078;48.304;11.896;2023-02-11T08:34:22;98040.03;;;-0.03;73.63
45345;BME280;31078;48.304;11.896;2023-02-11T08:36:48;98036.75;;;-0.05;73.06
45345;BME280;31078;48.304;11.896;2023-02-11T08:39:17;98036.47;;;0.23;73.16
45345;BME280;31078;48.304;11.896;2023-02-11T08:41:46;98038.28;;;0.43;71.83
45345;BME280;31078;48.304;11.896;2023-02-11T08:44:13;98039.00;;;0.63;71.82
45345;BME280;31078;48.304;11.896;2023-02-11T08:46:39;98046.03;;;0.64;71.51
45345;BME280;31078;48.304;11.896;2023-02-11T08:49:05;98030.78;;;0.58;70.90
45345;BME280;31078;48.304;11.896;2023-02-11T08:51:32;98036.13;;;0.65;71.28
45345;BME280;31078;48.304;11.896;2023-02-11T08:53:59;98025.91;;;0.42;71.34
45345;BME280;31078;48.304;11.896;2023-02-11T08:56:26;98020.44;;;0.68;72.10
45345;BME280;31078;48.304;11.896;2023-02-11T08:58:56;98013.84;;;0.64;69.40
45345;BME280;31078;48.304;11.896;2023-02-11T09:01:25;98004.44;;;0.48;69.21
45345;BME280;31078;48.304;11.896;2023-02-11T09:03:52;98004.75;;;0.65;69.02
45345;BME280;31078;48.304;11.896;2023-02-11T09:06:20;98001.00;;;0.73;68.46
45345;BME280;31078;48.304;11.896;2023-02-11T09:08:48;97997.31;;;0.74;68.37
45345;BME280;31078;48.304;11.896;2023-02-11T09:11:15;97987.03;;;0.64;68.19
45345;BME280;31078;48.304;11.896;2023-02-11T09:13:43;97984.72;;;0.74;68.30
45345;BME280;31078;48.304;11.896;2023-02-11T09:16:17;97985.56;;;0.68;67.38
45345;BME280;31078;48.304;11.896;2023-02-11T09:18:44;97982.44;;;0.71;67.33
45345;BME280;31078;48.304;11.896;2023-02-11T09:21:13;97996.38;;;0.87;66.70
45345;BME280;31078;48.304;11.896;2023-02-11T09:23:40;98007.66;;;1.02;67.04
45345;BME280;31078;48.304;11.896;2023-02-11T09:26:11;98017.69;;;1.13;66.74
45345;BME280;31078;48.304;11.896;2023-02-11T09:28:38;98003.06;;;1.34;66.60
45345;BME280;31078;48.304;11.896;2023-02-11T09:31:05;98006.59;;;1.60;65.46
45345;BME280;31078;48.304;11.896;2023-02-11T09:33:34;98003.16;;;1.96;63.68
45345;BME280;31078;48.304;11.896;2023-02-11T09:36:01;98017.94;;;2.05;63.28
45345;BME280;31078;48.304;11.896;2023-02-11T09:38:28;98027.31;;;1.96;63.52
45345;BME280;31078;48.304;11.896;2023-02-11T09:40:54;98011.03;;;1.91;63.76
45345;BME280;31078;48.304;11.896;2023-02-11T09:43:22;98001.06;;;2.16;63.42
45345;BME280;31078;48.304;11.896;2023-02-11T09:45:52;97993.59;;;2.37;63.34
45345;BME280;31078;48.304;11.896;2023-02-11T09:48:21;97995.53;;;2.29;62.54
45345;BME280;31078;48.304;11.896;2023-02-11T09:50:51;97993.75;;;2.23;62.63
45345;BME280;31078;48.304;11.896;2023-02-11T09:53:23;97998.22;;;2.11;63.72
45345;BME280;31078;48.304;11.896;2023-02-11T09:55:52;98005.00;;;2.50;62.87
45345;BME280;31078;48.304;11.896;2023-02-11T09:58:24;98002.97;;;2.64;62.47
45345;BME280;31078;48.304;11.896;2023-02-11T10:00:59;98007.00;;;2.73;61.72
45345;BME280;31078;48.304;11.896;2023-02-11T10:03:50;98011.69;;;2.78;62.09
45345;BME280;31078;48.304;11.896;2023-02-11T10:06:38;98005.91;;;2.93;62.13
45345;BME280;31078;48.304;11.896;2023-02-11T10:09:25;98006.47;;;3.25;60.86
45345;BME280;31078;48.304;11.896;2023-02-11T10:12:02;97998.78;;;3.75;58.94
45345;BME280;31078;48.304;11.896;2023-02-11T10:14:47;98007.38;;;3.72;59.18
45345;BME280;31078;48.304;11.896;2023-02-11T10:17:24;98009.13;;;3.66;58.29
45345;BME280;31078;48.304;11.896;2023-02-11T10:20:05;98009.25;;;3.18;59.54
45345;BME280;31078;48.304;11.896;2023-02-11T10:22:40;98018.72;;;3.09;60.72
45345;BME280;31078;48.304;11.896;2023-02-11T10:25:20;98012.06;;;3.23;60.00
45345;BME280;31078;48.304;11.896;2023-02-11T10:27:47;98000.78;;;3.56;59.76
45345;BME280;31078;48.304;11.896;2023-02-11T10:30:22;97990.72;;;3.52;58.88
45345;BME280;31078;48.304;11.896;2023-02-11T10:32:55;97999.75;;;3.69;59.55
45345;BME280;31078;48.304;11.896;2023-02-11T10:35:24;97985.31;;;3.63;58.16
45345;BME280;31078;48.304;11.896;2023-02-11T10:37:53;97982.53;;;3.93;57.73
45345;BME280;31078;48.304;11.896;2023-02-11T10:40:22;97978.31;;;3.62;57.68
45345;BME280;31078;48.304;11.896;2023-02-11T10:42:51;97977.50;;;3.62;58.50
45345;BME280;31078;48.304;11.896;2023-02-11T10:45:32;97974.19;;;3.60;58.58
45345;BME280;31078;48.304;11.896;2023-02-11T10:47:59;97963.88;;;3.80;59.26
45345;BME280;31078;48.304;11.896;2023-02-11T10:50:27;97975.13;;;4.01;58.49
45345;BME280;31078;48.304;11.896;2023-02-11T10:53:15;97965.78;;;3.91;57.18
45345;BME280;31078;48.304;11.896;2023-02-11T10:55:49;97960.13;;;4.05;56.88
45345;BME280;31078;48.304;11.896;2023-02-11T10:58:23;97957.56;;;4.38;56.70
45345;BME280;31078;48.304;11.896;2023-02-11T11:00:52;97956.25;;;4.53;54.88
45345;BME280;31078;48.304;11.896;2023-02-11T11:03:21;97957.69;;;4.43;55.68
45345;BME280;31078;48.304;11.896;2023-02-11T11:05:49;97956.13;;;4.19;56.64
45345;BME280;31078;48.304;11.896;2023-02-11T11:08:18;97954.84;;;4.10;56.85
45345;BME280;31078;48.304;11.896;2023-02-11T11:10:46;97954.94;;;4.15;56.61
45345;BME280;31078;48.304;11.896;2023-02-11T11:13:28;97954.28;;;3.84;57.36
45345;BME280;31078;48.304;11.896;2023-02-11T11:16:21;97955.78;;;4.04;58.01
45345;BME280;31078;48.304;11.896;2023-02-11T11:18:48;97955.63;;;4.22;56.59
45345;BME280;31078;48.304;11.896;2023-02-11T11:21:18;97961.66;;;4.01;57.41
45345;BME280;31078;48.304;11.896;2023-02-11T11:23:49;97956.81;;;4.26;57.50
45345;BME280;31078;48.304;11.896;2023-02-11T11:26:17;97952.97;;;4.51;58.59
45345;BME280;31078;48.304;11.896;2023-02-11T11:28:51;97952.88;;;4.45;58.69
45345;BME280;31078;48.304;11.896;2023-02-11T11:31:22;97956.13;;;4.19;58.23
45345;BME280;31078;48.304;11.896;2023-02-11T11:33:52;97961.75;;;4.06;59.13
45345;BME280;31078;48.304;11.896;2023-02-11T11:36:21;97967.25;;;4.11;59.57
45345;BME280;31078;48.304;11.896;2023-02-11T11:38:52;97970.28;;;4.26;59.35
45345;BME280;31078;48.304;11.896;2023-02-11T11:41:23;97970.66;;;4.18;58.50
45345;BME280;31078;48.304;11.896;2023-02-11T11:43:54;97967.72;;;4.19;58.64
45345;BME280;31078;48.304;11.896;2023-02-11T11:46:23;97975.13;;;4.12;58.61
45345;BME280;31078;48.304;11.896;2023-02-11T11:48:53;97976.75;;;4.25;56.93
45345;BME280;31078;48.304;11.896;2023-02-11T11:51:22;97965.84;;;4.20;60.04
45345;BME280;31078;48.304;11.896;2023-02-11T11:53:55;97957.72;;;4.32;58.05
45345;BME280;31078;48.304;11.896;2023-02-11T11:56:25;97946.00;;;4.26;57.69
45345;BME280;31078;48.304;11.896;2023-02-11T11:58:54;97942.63;;;4.19;59.43
45345;BME280;31078;48.304;11.896;2023-02-11T12:01:32;97942.63;;;4.19;59.54
45345;BME280;31078;48.304;11.896;2023-02-11T12:04:18;97938.66;;;4.10;58.33
45345;BME280;31078;48.304;11.896;2023-02-11T12:07:01;97935.72;;;4.23;58.28
45345;BME280;31078;48.304;11.896;2023-02-11T12:09:40;97932.03;;;4.41;59.14
45345;BME280;31078;48.304;11.896;2023-02-11T12:12:24;97923.28;;;4.22;57.45
45345;BME280;31078;48.304;11.896;2023-02-11T12:15:03;97919.88;;;4.27;57.84
45345;BME280;31078;48.304;11.896;2023-02-11T12:17:49;97910.28;;;4.48;57.91
45345;BME280;31078;48.304;11.896;2023-02-11T12:20:30;97907.22;;;4.56;56.90
45345;BME280;31078;48.304;11.896;2023-02-11T12:23:09;97906.97;;;4.57;56.66
45345;BME280;31078;48.304;11.896;2023-02-11T12:25:45;97903.66;;;4.67;57.39
45345;BME280;31078;48.304;11.896;2023-02-11T12:28:24;97908.47;;;4.65;56.82
45345;BME280;31078;48.304;11.896;2023-02-11T12:31:11;97905.19;;;4.63;55.98
45345;BME280;31078;48.304;11.896;2023-02-11T12:34:02;97903.66;;;4.67;56.07
45345;BME280;31078;48.304;11.896;2023-02-11T12:36:46;97896.91;;;4.81;55.81
45345;BME280;31078;48.304;11.896;2023-02-11T12:39:25;97911.31;;;4.87;55.34
45345;BME280;31078;48.304;11.896;2023-02-11T12:42:12;97914.47;;;4.84;56.04
45345;BME280;31078;48.304;11.896;2023-02-11T12:45:12;97898.91;;;4.74;55.22
45345;BME280;31078;48.304;11.896;2023-02-11T12:47:56;97905.16;;;4.46;55.61
45345;BME280;31078;48.304;11.896;2023-02-11T12:50:34;97897.53;;;4.43;57.09
45345;BME280;31078;48.304;11.896;2023-02-11T12:53:15;97890.88;;;4.62;57.24
45345;BME280;31078;48.304;11.896;2023-02-11T12:55:47;97891.75;;;4.96;57.21
45345;BME280;31078;48.304;11.896;2023-02-11T12:58:20;97887.97;;;5.48;56.22
45345;BME280;31078;48.304;11.896;2023-02-11T13:00:51;97882.63;;;5.70;54.56
45345;BME280;31078;48.304;11.896;2023-02-11T13:03:23;97878.47;;;5.84;53.74
45345;BME280;31078;48.304;11.896;2023-02-11T13:05:53;97876.19;;;5.54;54.36
45345;BME280;31078;48.304;11.896;2023-02-11T13:08:25;97861.88;;;5.75;54.00
45345;BME280;31078;48.304;11.896;2023-02-11T13:10:54;97850.59;;;6.22;53.11